sensor_id;sensor_type;location;lat;lon;timestamp;pressure;altitude;pressure_sealevel;temperature;humidity
24390;BME280;12510;56.468;-3.004;2023-03-03T00:01:13;102158.09;;;13.78;67.03
24390;BME280;12510;56.468;-3.004;2023-03-03T00:03:40;102159.41;;;13.72;64.55
24390;BME280;12510;56.468;-3.004;2023-03-03T00:06:09;102156.47;;;14.32;63.55
24390;BME280;12510;56.468;-3.004;2023-03-03T00:08:36;102168.19;;;13.95;67.22
24390;BME280;12510;56.468;-3.004;2023-03-03T00:11:03;102163.88;;;13.94;66.79
24390;BME280;12510;56.468;-3.004;2023-03-03T00:13:53;102164.50;;;13.86;67.07
24390;BME280;12510;56.468;-3.004;2023-03-03T00:16:26;102165.31;;;13.75;67.52
24390;BME280;12510;56.468;-3.004;2023-03-03T00:18:54;102166.75;;;13.91;68.63
24390;BME280;12510;56.468;-3.004;2023-03-03T00:21:29;102164.59;;;13.85;68.29
24390;BME280;12510;56.468;-3.004;2023-03-03T00:24:22;102168.06;;;13.97;68.26
24390;BME280;12510;56.468;-3.004;2023-03-03T00:26:54;102169.66;;;13.88;67.79
24390;BME280;12510;56.468;-3.004;2023-03-03T00:34:50;102170.38;;;13.79;70.10
24390;BME280;12510;56.468;-3.004;2023-03-03T00:39:48;102172.66;;;13.25;69.36
24390;BME280;12510;56.468;-3.004;2023-03-03T00:42:16;102178.66;;;13.16;72.41
24390;BME280;12510;56.468;-3.004;2023-03-03T00:44:56;102178.38;;;13.07;73.84
24390;BME280;12510;56.468;-3.004;2023-03-03T00:47:42;102183.28;;;12.15;71.64
24390;BME280;12510;56.468;-3.004;2023-03-03T00:52:43;102158.00;;;14.68;59.08
24390;BME280;12510;56.468;-3.004;2023-03-03T00:55:11;102168.28;;;14.39;61.01
24390;BME280;12510;56.468;-3.004;2023-03-03T00:57:37;102176.63;;;14.12;65.65
24390;BME280;12510;56.468;-3.004;2023-03-03T01:00:07;102173.25;;;14.10;66.97
24390;BME280;12510;56.468;-3.004;2023-03-03T01:02:34;102180.97;;;14.01;66.81
24390;BME280;12510;56.468;-3.004;2023-03-03T01:05:00;102177.47;;;13.89;65.91
24390;BME280;12510;56.468;-3.004;2023-03-03T01:07:27;102176.75;;;13.99;65.93
24390;BME280;12510;56.468;-3.004;2023-03-03T01:09:54;102177.13;;;14.05;67.19
24390;BME280;12510;56.468;-3.004;2023-03-03T01:12:21;102177.00;;;14.07;66.85
24390;BME280;12510;56.468;-3.004;2023-03-03T01:14:48;102175.03;;;14.09;66.60
24390;BME280;12510;56.468;-3.004;2023-03-03T01:17:18;102176.88;;;14.08;66.23
24390;BME280;12510;56.468;-3.004;2023-03-03T01:19:45;102167.09;;;14.09;66.12
24390;BME280;12510;56.468;-3.004;2023-03-03T01:22:12;102168.69;;;14.00;66.69
24390;BME280;12510;56.468;-3.004;2023-03-03T01:24:38;102167.44;;;13.01;69.48
24390;BME280;12510;56.468;-3.004;2023-03-03T01:27:04;102171.72;;;13.02;70.92
24390;BME280;12510;56.468;-3.004;2023-03-03T01:29:31;102162.41;;;13.09;71.37
24390;BME280;12510;56.468;-3.004;2023-03-03T01:31:57;102171.63;;;13.03;71.30
24390;BME280;12510;56.468;-3.004;2023-03-03T01:34:24;102169.44;;;12.97;70.83
24390;BME280;12510;56.468;-3.004;2023-03-03T01:36:51;102176.09;;;13.38;70.73
24390;BME280;12510;56.468;-3.004;2023-03-03T01:39:17;102173.41;;;13.03;72.65
24390;BME280;12510;56.468;-3.004;2023-03-03T01:41:44;102169.44;;;12.97;73.39
24390;BME280;12510;56.468;-3.004;2023-03-03T01:44:13;102166.63;;;13.12;71.64
24390;BME280;12510;56.468;-3.004;2023-03-03T01:47:10;102174.50;;;13.00;73.08
24390;BME280;12510;56.468;-3.004;2023-03-03T01:52:46;102170.13;;;12.88;73.69
24390;BME280;12510;56.468;-3.004;2023-03-03T01:55:19;102176.63;;;12.47;74.05
24390;BME280;12510;56.468;-3.004;2023-03-03T01:57:56;102165.94;;;12.72;71.40
24390;BME280;12510;56.468;-3.004;2023-03-03T02:00:25;102175.19;;;12.67;72.32
24390;BME280;12510;56.468;-3.004;2023-03-03T02:02:53;102169.84;;;12.80;71.97
24390;BME280;12510;56.468;-3.004;2023-03-03T02:05:20;102165.34;;;12.93;71.08
24390;BME280;12510;56.468;-3.004;2023-03-03T02:07:46;102164.84;;;12.64;72.68
24390;BME280;12510;56.468;-3.004;2023-03-03T02:10:16;102169.56;;;12.71;70.49
24390;BME280;12510;56.468;-3.004;2023-03-03T02:15:31;102162.16;;;12.77;72.44
24390;BME280;12510;56.468;-3.004;2023-03-03T02:17:59;102170.19;;;12.75;73.10
24390;BME280;12510;56.468;-3.004;2023-03-03T02:20:55;102163.38;;;12.84;73.56
24390;BME280;12510;56.468;-3.004;2023-03-03T02:23:29;102165.50;;;12.79;73.93
24390;BME280;12510;56.468;-3.004;2023-03-03T02:26:06;102167.25;;;12.43;73.29
24390;BME280;12510;56.468;-3.004;2023-03-03T02:28:36;102169.31;;;12.63;73.08
24390;BME280;12510;56.468;-3.004;2023-03-03T02:31:12;102159.47;;;12.52;71.21
24390;BME280;12510;56.468;-3.004;2023-03-03T02:33:45;102170.25;;;12.62;72.83
24390;BME280;12510;56.468;-3.004;2023-03-03T02:36:25;102172.00;;;12.74;72.80
24390;BME280;12510;56.468;-3.004;2023-03-03T02:42:03;102172.50;;;12.80;73.00
24390;BME280;12510;56.468;-3.004;2023-03-03T02:44:39;102170.91;;;12.77;73.32
24390;BME280;12510;56.468;-3.004;2023-03-03T02:47:06;102178.03;;;12.77;73.51
24390;BME280;12510;56.468;-3.004;2023-03-03T02:49:34;102170.19;;;12.75;73.41
24390;BME280;12510;56.468;-3.004;2023-03-03T02:52:05;102165.63;;;13.13;72.18
24390;BME280;12510;56.468;-3.004;2023-03-03T02:54:33;102172.53;;;13.27;70.92
24390;BME280;12510;56.468;-3.004;2023-03-03T02:57:02;102164.31;;;13.43;71.21
24390;BME280;12510;56.468;-3.004;2023-03-03T02:59:29;102160.81;;;13.42;70.05
24390;BME280;12510;56.468;-3.004;2023-03-03T03:01:57;102162.38;;;13.45;70.27
24390;BME280;12510;56.468;-3.004;2023-03-03T03:04:26;102170.97;;;12.88;73.45
24390;BME280;12510;56.468;-3.004;2023-03-03T03:06:53;102167.66;;;12.73;74.98
24390;BME280;12510;56.468;-3.004;2023-03-03T03:09:23;102171.88;;;12.76;75.85
24390;BME280;12510;56.468;-3.004;2023-03-03T03:11:51;102170.41;;;12.72;75.56
24390;BME280;12510;56.468;-3.004;2023-03-03T03:14:21;102163.22;;;12.74;75.67
24390;BME280;12510;56.468;-3.004;2023-03-03T03:16:49;102165.34;;;12.69;74.37
24390;BME280;12510;56.468;-3.004;2023-03-03T03:19:16;102161.13;;;13.26;73.06
24390;BME280;12510;56.468;-3.004;2023-03-03T03:21:43;102170.72;;;13.27;73.19
24390;BME280;12510;56.468;-3.004;2023-03-03T03:24:10;102165.31;;;13.29;72.37
24390;BME280;12510;56.468;-3.004;2023-03-03T03:26:40;102163.69;;;13.39;71.23
24390;BME280;12510;56.468;-3.004;2023-03-03T03:29:08;102162.53;;;13.19;72.04
24390;BME280;12510;56.468;-3.004;2023-03-03T03:31:36;102172.53;;;13.27;72.31
24390;BME280;12510;56.468;-3.004;2023-03-03T03:34:03;102167.38;;;13.25;71.34
24390;BME280;12510;56.468;-3.004;2023-03-03T03:36:30;102165.19;;;13.19;71.17
24390;BME280;12510;56.468;-3.004;2023-03-03T03:38:56;102160.50;;;13.22;71.18
24390;BME280;12510;56.468;-3.004;2023-03-03T03:41:23;102167.88;;;12.70;74.16
24390;BME280;12510;56.468;-3.004;2023-03-03T03:43:49;102171.53;;;12.56;75.01
24390;BME280;12510;56.468;-3.004;2023-03-03T03:46:16;102180.31;;;12.57;76.57
24390;BME280;12510;56.468;-3.004;2023-03-03T03:48:43;102183.66;;;12.59;76.02
24390;BME280;12510;56.468;-3.004;2023-03-03T03:51:13;102186.03;;;12.51;76.27
24390;BME280;12510;56.468;-3.004;2023-03-03T03:53:40;102180.19;;;12.83;75.52
24390;BME280;12510;56.468;-3.004;2023-03-03T03:56:07;102180.19;;;12.58;76.54
24390;BME280;12510;56.468;-3.004;2023-03-03T03:58:33;102182.72;;;12.60;75.88
24390;BME280;12510;56.468;-3.004;2023-03-03T04:01:05;102176.22;;;12.77;72.18
24390;BME280;12510;56.468;-3.004;2023-03-03T04:03:34;102177.44;;;12.60;72.82
24390;BME280;12510;56.468;-3.004;2023-03-03T04:06:04;102180.53;;;12.78;73.76
24390;BME280;12510;56.468;-3.004;2023-03-03T04:08:31;102177.03;;;12.78;73.76
24390;BME280;12510;56.468;-3.004;2023-03-03T04:10:57;102179.41;;;13.29;71.01
24390;BME280;12510;56.468;-3.004;2023-03-03T04:13:26;102180.16;;;12.71;74.15
24390;BME280;12510;56.468;-3.004;2023-03-03T04:15:54;102174.78;;;12.60;71.12
24390;BME280;12510;56.468;-3.004;2023-03-03T04:18:20;102180.03;;;12.73;74.03
24390;BME280;12510;56.468;-3.004;2023-03-03T04:20:47;102184.47;;;12.72;74.08
24390;BME280;12510;56.468;-3.004;2023-03-03T04:23:15;102176.31;;;12.76;74.30
24390;BME280;12510;56.468;-3.004;2023-03-03T04:25:41;102175.06;;;13.64;70.64
24390;BME280;12510;56.468;-3.004;2023-03-03T04:28:14;102171.63;;;12.79;72.56
24390;BME280;12510;56.468;-3.004;2023-03-03T04:30:41;102174.06;;;12.58;71.14
24390;BME280;12510;56.468;-3.004;2023-03-03T04:33:08;102172.25;;;12.58;73.43
24390;BME280;12510;56.468;-3.004;2023-03-03T04:35:37;102173.31;;;13.04;72.73
24390;BME280;12510;56.468;-3.004;2023-03-03T04:38:03;102170.47;;;13.19;69.09
24390;BME280;12510;56.468;-3.004;2023-03-03T04:40:31;102172.53;;;13.73;67.79
24390;BME280;12510;56.468;-3.004;2023-03-03T04:42:59;102165.19;;;13.19;65.72
24390;BME280;12510;56.468;-3.004;2023-03-03T04:45:27;102169.13;;;13.13;68.02
24390;BME280;12510;56.468;-3.004;2023-03-03T04:47:53;102171.53;;;13.16;69.14
24390;BME280;12510;56.468;-3.004;2023-03-03T04:50:20;102173.97;;;13.19;68.10
24390;BME280;12510;56.468;-3.004;2023-03-03T04:52:46;102153.81;;;14.32;64.83
24390;BME280;12510;56.468;-3.004;2023-03-03T04:55:13;102159.66;;;14.58;63.33
24390;BME280;12510;56.468;-3.004;2023-03-03T04:57:40;102152.03;;;14.32;62.77
24390;BME280;12510;56.468;-3.004;2023-03-03T05:00:08;102152.88;;;14.33;61.31
24390;BME280;12510;56.468;-3.004;2023-03-03T05:02:34;102159.47;;;14.50;62.22
24390;BME280;12510;56.468;-3.004;2023-03-03T05:05:01;102151.31;;;14.30;62.28
24390;BME280;12510;56.468;-3.004;2023-03-03T05:07:27;102163.47;;;14.33;61.41
24390;BME280;12510;56.468;-3.004;2023-03-03T05:09:56;102159.41;;;14.61;62.40
24390;BME280;12510;56.468;-3.004;2023-03-03T05:12:22;102159.66;;;14.69;63.70
24390;BME280;12510;56.468;-3.004;2023-03-03T05:14:48;102159.19;;;14.53;62.82
24390;BME280;12510;56.468;-3.004;2023-03-03T05:17:15;102159.81;;;14.56;62.80
24390;BME280;12510;56.468;-3.004;2023-03-03T05:19:41;102160.19;;;14.63;61.55
24390;BME280;12510;56.468;-3.004;2023-03-03T05:22:08;102157.03;;;14.58;62.14
24390;BME280;12510;56.468;-3.004;2023-03-03T05:24:35;102160.28;;;14.62;62.15
24390;BME280;12510;56.468;-3.004;2023-03-03T05:27:01;102158.53;;;15.68;61.24
24390;BME280;12510;56.468;-3.004;2023-03-03T05:29:29;102147.94;;;16.08;56.97
24390;BME280;12510;56.468;-3.004;2023-03-03T05:31:57;102140.16;;;15.86;53.61
24390;BME280;12510;56.468;-3.004;2023-03-03T05:34:23;102143.16;;;16.02;55.87
24390;BME280;12510;56.468;-3.004;2023-03-03T05:36:50;102141.78;;;16.08;55.78
24390;BME280;12510;56.468;-3.004;2023-03-03T05:39:16;102144.63;;;15.85;56.02
24390;BME280;12510;56.468;-3.004;2023-03-03T05:41:43;102149.50;;;15.80;56.33
24390;BME280;12510;56.468;-3.004;2023-03-03T05:44:10;102152.84;;;16.03;55.49
24390;BME280;12510;56.468;-3.004;2023-03-03T05:46:36;102144.09;;;15.61;53.17
24390;BME280;12510;56.468;-3.004;2023-03-03T05:49:03;102143.34;;;15.80;53.90
24390;BME280;12510;56.468;-3.004;2023-03-03T05:51:29;102142.97;;;15.63;55.31
24390;BME280;12510;56.468;-3.004;2023-03-03T05:53:55;102151.38;;;15.68;55.52
24390;BME280;12510;56.468;-3.004;2023-03-03T05:56:22;102147.19;;;15.66;56.50
24390;BME280;12510;56.468;-3.004;2023-03-03T05:58:48;102147.13;;;16.18;55.84
24390;BME280;12510;56.468;-3.004;2023-03-03T06:01:15;102152.03;;;14.76;57.60
24390;BME280;12510;56.468;-3.004;2023-03-03T06:03:41;102162.44;;;14.01;61.28
24390;BME280;12510;56.468;-3.004;2023-03-03T06:06:08;102163.84;;;13.60;61.81
24390;BME280;12510;56.468;-3.004;2023-03-03T06:08:34;102158.50;;;13.26;62.13
24390;BME280;12510;56.468;-3.004;2023-03-03T06:11:01;102156.03;;;13.93;62.25
24390;BME280;12510;56.468;-3.004;2023-03-03T06:13:28;102157.38;;;13.87;62.30
24390;BME280;12510;56.468;-3.004;2023-03-03T06:15:55;102160.72;;;13.89;63.12
24390;BME280;12510;56.468;-3.004;2023-03-03T06:18:21;102163.00;;;14.05;62.26
24390;BME280;12510;56.468;-3.004;2023-03-03T06:20:54;102160.50;;;13.69;62.00
24390;BME280;12510;56.468;-3.004;2023-03-03T06:23:20;102170.66;;;12.69;64.68
24390;BME280;12510;56.468;-3.004;2023-03-03T06:25:47;102166.75;;;14.02;61.82
24390;BME280;12510;56.468;-3.004;2023-03-03T06:28:14;102168.94;;;14.20;59.25
24390;BME280;12510;56.468;-3.004;2023-03-03T06:30:40;102177.47;;;13.20;63.57
24390;BME280;12510;56.468;-3.004;2023-03-03T06:33:07;102166.78;;;14.69;60.84
24390;BME280;12510;56.468;-3.004;2023-03-03T06:35:33;102175.41;;;13.59;59.78
24390;BME280;12510;56.468;-3.004;2023-03-03T06:37:59;102179.81;;;13.36;62.90
24390;BME280;12510;56.468;-3.004;2023-03-03T06:40:26;102165.91;;;13.79;59.65
24390;BME280;12510;56.468;-3.004;2023-03-03T06:42:52;102178.19;;;14.03;59.74
24390;BME280;12510;56.468;-3.004;2023-03-03T06:45:19;102173.59;;;14.05;59.51
24390;BME280;12510;56.468;-3.004;2023-03-03T06:47:45;102171.31;;;14.12;59.01
24390;BME280;12510;56.468;-3.004;2023-03-03T06:50:12;102179.41;;;13.99;59.54
24390;BME280;12510;56.468;-3.004;2023-03-03T06:52:38;102171.56;;;14.08;58.66
24390;BME280;12510;56.468;-3.004;2023-03-03T06:55:11;102183.09;;;13.51;57.77
24390;BME280;12510;56.468;-3.004;2023-03-03T06:57:39;102179.84;;;13.12;58.41
24390;BME280;12510;56.468;-3.004;2023-03-03T07:00:18;102193.13;;;13.34;60.31
24390;BME280;12510;56.468;-3.004;2023-03-03T07:02:47;102186.47;;;13.53;59.36
24390;BME280;12510;56.468;-3.004;2023-03-03T07:05:17;102195.53;;;12.78;60.82
24390;BME280;12510;56.468;-3.004;2023-03-03T07:07:43;102194.19;;;14.13;57.47
24390;BME280;12510;56.468;-3.004;2023-03-03T07:10:27;102176.16;;;15.05;53.14
24390;BME280;12510;56.468;-3.004;2023-03-03T07:13:13;102193.50;;;15.52;53.10
24390;BME280;12510;56.468;-3.004;2023-03-03T07:15:41;102181.19;;;15.51;52.29
24390;BME280;12510;56.468;-3.004;2023-03-03T07:21:13;102185.41;;;15.32;52.26
24390;BME280;12510;56.468;-3.004;2023-03-03T07:23:43;102198.00;;;15.30;54.25
24390;BME280;12510;56.468;-3.004;2023-03-03T07:26:15;102194.34;;;15.52;53.82
24390;BME280;12510;56.468;-3.004;2023-03-03T07:28:43;102192.53;;;15.74;52.14
24390;BME280;12510;56.468;-3.004;2023-03-03T07:31:35;102199.44;;;15.65;52.93
24390;BME280;12510;56.468;-3.004;2023-03-03T07:34:52;102219.50;;;14.05;57.71
24390;BME280;12510;56.468;-3.004;2023-03-03T07:37:05;102224.47;;;13.52;59.61
24390;BME280;12510;56.468;-3.004;2023-03-03T07:39:37;102218.31;;;13.51;58.91
24390;BME280;12510;56.468;-3.004;2023-03-03T07:44:50;102217.13;;;13.55;58.75
24390;BME280;12510;56.468;-3.004;2023-03-03T07:49:47;102216.31;;;13.55;57.24
24390;BME280;12510;56.468;-3.004;2023-03-03T07:52:23;102228.78;;;14.00;60.56
24390;BME280;12510;56.468;-3.004;2023-03-03T07:54:54;102232.47;;;13.86;58.69
24390;BME280;12510;56.468;-3.004;2023-03-03T07:57:27;102230.59;;;14.11;57.44
24390;BME280;12510;56.468;-3.004;2023-03-03T08:02:43;102237.03;;;14.74;58.87
24390;BME280;12510;56.468;-3.004;2023-03-03T08:05:35;102235.19;;;15.19;57.49
24390;BME280;12510;56.468;-3.004;2023-03-03T08:13:22;102233.84;;;15.24;55.71
24390;BME280;12510;56.468;-3.004;2023-03-03T08:15:51;102238.66;;;15.73;55.38
24390;BME280;12510;56.468;-3.004;2023-03-03T08:18:27;102220.13;;;15.62;51.89
24390;BME280;12510;56.468;-3.004;2023-03-03T08:21:00;102219.06;;;18.20;47.66
24390;BME280;12510;56.468;-3.004;2023-03-03T08:23:27;102230.38;;;18.60;48.66
24390;BME280;12510;56.468;-3.004;2023-03-03T08:25:53;102209.06;;;18.04;45.29
24390;BME280;12510;56.468;-3.004;2023-03-03T08:28:21;102210.16;;;18.39;43.91
24390;BME280;12510;56.468;-3.004;2023-03-03T08:30:48;102211.69;;;18.60;44.76
24390;BME280;12510;56.468;-3.004;2023-03-03T08:33:16;102215.72;;;18.46;43.64
24390;BME280;12510;56.468;-3.004;2023-03-03T08:35:43;102210.16;;;18.39;42.72
24390;BME280;12510;56.468;-3.004;2023-03-03T08:38:11;102217.56;;;18.18;43.86
24390;BME280;12510;56.468;-3.004;2023-03-03T08:40:38;102228.31;;;18.54;44.60
24390;BME280;12510;56.468;-3.004;2023-03-03T08:43:05;102221.66;;;18.40;43.28
24390;BME280;12510;56.468;-3.004;2023-03-03T08:45:32;102215.81;;;17.41;43.12
24390;BME280;12510;56.468;-3.004;2023-03-03T08:47:59;102233.56;;;16.72;44.29
24390;BME280;12510;56.468;-3.004;2023-03-03T08:50:28;102243.09;;;16.24;46.77
24390;BME280;12510;56.468;-3.004;2023-03-03T08:52:55;102239.19;;;18.15;45.45
24390;BME280;12510;56.468;-3.004;2023-03-03T08:55:21;102239.91;;;16.81;45.87
24390;BME280;12510;56.468;-3.004;2023-03-03T08:57:48;102245.00;;;16.13;45.27
24390;BME280;12510;56.468;-3.004;2023-03-03T09:00:16;102234.22;;;17.05;43.30
24390;BME280;12510;56.468;-3.004;2023-03-03T09:02:43;102234.72;;;17.38;43.45
24390;BME280;12510;56.468;-3.004;2023-03-03T09:05:10;102234.19;;;17.35;42.65
24390;BME280;12510;56.468;-3.004;2023-03-03T09:07:37;102258.81;;;16.37;45.66
24390;BME280;12510;56.468;-3.004;2023-03-03T09:10:05;102243.00;;;17.16;42.99
24390;BME280;12510;56.468;-3.004;2023-03-03T09:12:43;102249.31;;;16.35;44.46
24390;BME280;12510;56.468;-3.004;2023-03-03T09:15:22;102257.50;;;16.63;46.98
24390;BME280;12510;56.468;-3.004;2023-03-03T09:17:49;102260.47;;;16.69;47.59
24390;BME280;12510;56.468;-3.004;2023-03-03T09:25:50;102237.50;;;18.14;41.50
24390;BME280;12510;56.468;-3.004;2023-03-03T09:28:31;102233.91;;;17.38;41.90
24390;BME280;12510;56.468;-3.004;2023-03-03T09:31:01;102225.63;;;17.51;40.45
24390;BME280;12510;56.468;-3.004;2023-03-03T09:33:46;102235.50;;;17.78;42.52
24390;BME280;12510;56.468;-3.004;2023-03-03T09:36:35;102230.97;;;17.31;41.60
24390;BME280;12510;56.468;-3.004;2023-03-03T09:39:32;102226.88;;;17.56;41.60
24390;BME280;12510;56.468;-3.004;2023-03-03T09:50:25;102224.53;;;17.81;39.86
24390;BME280;12510;56.468;-3.004;2023-03-03T10:12:26;102201.69;;;18.44;37.27
24390;BME280;12510;56.468;-3.004;2023-03-03T10:15:06;102205.97;;;18.55;37.88
24390;BME280;12510;56.468;-3.004;2023-03-03T10:17:51;102185.09;;;20.93;34.55
24390;BME280;12510;56.468;-3.004;2023-03-03T10:20:22;102195.88;;;20.42;35.02
24390;BME280;12510;56.468;-3.004;2023-03-03T10:22:54;102195.22;;;19.89;34.48
24390;BME280;12510;56.468;-3.004;2023-03-03T10:31:32;102204.72;;;18.03;37.13
24390;BME280;12510;56.468;-3.004;2023-03-03T10:51:07;102206.25;;;19.16;35.56
24390;BME280;12510;56.468;-3.004;2023-03-03T10:57:02;102207.03;;;19.60;34.66
24390;BME280;12510;56.468;-3.004;2023-03-03T11:02:22;102216.31;;;19.04;35.54
24390;BME280;12510;56.468;-3.004;2023-03-03T11:08:19;102222.00;;;17.99;36.38
24390;BME280;12510;56.468;-3.004;2023-03-03T11:21:43;102234.34;;;19.46;37.49
24390;BME280;12510;56.468;-3.004;2023-03-03T11:27:24;102216.94;;;19.16;35.24
24390;BME280;12510;56.468;-3.004;2023-03-03T11:33:06;102216.22;;;19.32;35.32
24390;BME280;12510;56.468;-3.004;2023-03-03T11:35:43;102212.41;;;19.34;34.68
24390;BME280;12510;56.468;-3.004;2023-03-03T11:41:13;102213.75;;;20.85;33.79
24390;BME280;12510;56.468;-3.004;2023-03-03T11:43:52;102217.78;;;18.98;34.05
24390;BME280;12510;56.468;-3.004;2023-03-03T11:46:31;102228.63;;;17.95;36.26
24390;BME280;12510;56.468;-3.004;2023-03-03T11:49:02;102237.41;;;17.29;37.77
24390;BME280;12510;56.468;-3.004;2023-03-03T11:54:22;102233.88;;;17.48;37.09
24390;BME280;12510;56.468;-3.004;2023-03-03T11:56:55;102244.06;;;16.54;39.38
24390;BME280;12510;56.468;-3.004;2023-03-03T11:59:35;102241.34;;;17.44;38.99
24390;BME280;12510;56.468;-3.004;2023-03-03T12:02:15;102238.78;;;16.84;39.05
24390;BME280;12510;56.468;-3.004;2023-03-03T12:04:54;102242.34;;;16.44;40.16
24390;BME280;12510;56.468;-3.004;2023-03-03T12:07:32;102242.81;;;16.78;39.35
24390;BME280;12510;56.468;-3.004;2023-03-03T12:10:26;102236.53;;;16.89;39.00
24390;BME280;12510;56.468;-3.004;2023-03-03T12:13:22;102236.00;;;16.95;39.62
24390;BME280;12510;56.468;-3.004;2023-03-03T12:16:06;102265.22;;;17.93;43.66
24390;BME280;12510;56.468;-3.004;2023-03-03T12:42:19;102234.53;;;16.62;40.59
24390;BME280;12510;56.468;-3.004;2023-03-03T12:45:06;102236.63;;;16.07;40.77
24390;BME280;12510;56.468;-3.004;2023-03-03T12:47:38;102238.00;;;16.52;40.51
24390;BME280;12510;56.468;-3.004;2023-03-03T12:58:03;102242.13;;;16.86;45.05
24390;BME280;12510;56.468;-3.004;2023-03-03T13:03:13;102210.34;;;15.62;42.17
24390;BME280;12510;56.468;-3.004;2023-03-03T13:05:50;102220.19;;;16.23;42.59
24390;BME280;12510;56.468;-3.004;2023-03-03T13:09:20;102201.47;;;16.45;40.09
24390;BME280;12510;56.468;-3.004;2023-03-03T13:15:24;102193.47;;;15.42;41.76
24390;BME280;12510;56.468;-3.004;2023-03-03T13:24:06;102185.44;;;15.63;43.01
24390;BME280;12510;56.468;-3.004;2023-03-03T13:26:49;102171.09;;;16.28;41.27
24390;BME280;12510;56.468;-3.004;2023-03-03T13:29:36;102164.28;;;17.03;40.94
24390;BME280;12510;56.468;-3.004;2023-03-03T13:32:17;102172.03;;;16.27;41.40
24390;BME280;12510;56.468;-3.004;2023-03-03T13:35:06;102157.00;;;16.86;41.15
24390;BME280;12510;56.468;-3.004;2023-03-03T13:37:44;102168.56;;;15.95;43.49
24390;BME280;12510;56.468;-3.004;2023-03-03T13:42:48;102159.34;;;16.50;41.47
24390;BME280;12510;56.468;-3.004;2023-03-03T13:48:28;102149.94;;;14.91;43.16
24390;BME280;12510;56.468;-3.004;2023-03-03T13:51:47;102154.22;;;15.03;43.92
24390;BME280;12510;56.468;-3.004;2023-03-03T13:54:14;102154.50;;;14.45;44.11
24390;BME280;12510;56.468;-3.004;2023-03-03T13:57:05;102141.59;;;15.17;43.90
24390;BME280;12510;56.468;-3.004;2023-03-03T13:59:50;102146.13;;;15.05;45.21
24390;BME280;12510;56.468;-3.004;2023-03-03T14:11:28;102144.00;;;15.41;46.36
24390;BME280;12510;56.468;-3.004;2023-03-03T14:16:08;102134.16;;;14.46;45.42
24390;BME280;12510;56.468;-3.004;2023-03-03T14:21:26;102129.97;;;14.87;45.22
24390;BME280;12510;56.468;-3.004;2023-03-03T14:24:19;102154.28;;;15.13;49.34
24390;BME280;12510;56.468;-3.004;2023-03-03T14:31:59;102171.34;;;15.63;58.13
24390;BME280;12510;56.468;-3.004;2023-03-03T14:34:38;102123.81;;;15.07;46.45
24390;BME280;12510;56.468;-3.004;2023-03-03T14:37:26;102138.00;;;14.64;47.32
24390;BME280;12510;56.468;-3.004;2023-03-03T14:42:37;102132.22;;;15.34;47.34
24390;BME280;12510;56.468;-3.004;2023-03-03T14:45:38;102134.97;;;15.32;49.61
24390;BME280;12510;56.468;-3.004;2023-03-03T14:48:25;102138.69;;;15.41;49.67
24390;BME280;12510;56.468;-3.004;2023-03-03T14:50:59;102118.81;;;14.28;47.77
24390;BME280;12510;56.468;-3.004;2023-03-03T14:53:44;102110.59;;;14.75;48.04
24390;BME280;12510;56.468;-3.004;2023-03-03T14:56:33;102125.69;;;14.96;50.41
24390;BME280;12510;56.468;-3.004;2023-03-03T14:59:29;102116.19;;;13.94;48.95
24390;BME280;12510;56.468;-3.004;2023-03-03T15:04:45;102112.03;;;15.00;48.09
24390;BME280;12510;56.468;-3.004;2023-03-03T15:09:49;102106.31;;;14.51;48.54
24390;BME280;12510;56.468;-3.004;2023-03-03T15:12:41;102106.56;;;14.04;49.89
24390;BME280;12510;56.468;-3.004;2023-03-03T15:15:17;102102.59;;;13.99;51.54
24390;BME280;12510;56.468;-3.004;2023-03-03T15:17:59;102101.47;;;14.24;50.17
24390;BME280;12510;56.468;-3.004;2023-03-03T15:23:10;102100.19;;;13.84;52.34
24390;BME280;12510;56.468;-3.004;2023-03-03T15:31:47;102099.84;;;14.44;49.19
24390;BME280;12510;56.468;-3.004;2023-03-03T15:40:12;102060.88;;;17.56;42.06
24390;BME280;12510;56.468;-3.004;2023-03-03T15:42:47;102061.34;;;19.14;40.42
24390;BME280;12510;56.468;-3.004;2023-03-03T15:53:27;102058.06;;;19.20;39.78
24390;BME280;12510;56.468;-3.004;2023-03-03T15:56:22;102056.03;;;17.97;40.07
24390;BME280;12510;56.468;-3.004;2023-03-03T15:59:08;102063.59;;;17.46;41.45
24390;BME280;12510;56.468;-3.004;2023-03-03T16:04:13;102062.50;;;16.23;42.81
24390;BME280;12510;56.468;-3.004;2023-03-03T16:18:26;102070.31;;;17.78;43.71
24390;BME280;12510;56.468;-3.004;2023-03-03T16:21:11;102061.22;;;16.96;41.93
24390;BME280;12510;56.468;-3.004;2023-03-03T16:23:55;102063.94;;;17.23;41.56
24390;BME280;12510;56.468;-3.004;2023-03-03T16:29:45;102060.59;;;17.21;41.99
24390;BME280;12510;56.468;-3.004;2023-03-03T16:32:23;102063.38;;;17.85;41.88
24390;BME280;12510;56.468;-3.004;2023-03-03T16:35:21;102071.56;;;16.89;43.02
24390;BME280;12510;56.468;-3.004;2023-03-03T16:37:57;102068.19;;;17.16;42.61
24390;BME280;12510;56.468;-3.004;2023-03-03T16:45:43;102070.28;;;17.50;42.74
24390;BME280;12510;56.468;-3.004;2023-03-03T16:53:45;102084.19;;;17.72;42.19
24390;BME280;12510;56.468;-3.004;2023-03-03T17:02:03;102086.84;;;16.87;43.63
24390;BME280;12510;56.468;-3.004;2023-03-03T17:04:53;102090.47;;;16.17;44.92
24390;BME280;12510;56.468;-3.004;2023-03-03T17:07:36;102078.47;;;16.42;44.44
24390;BME280;12510;56.468;-3.004;2023-03-03T17:13:10;102086.59;;;16.51;44.89
24390;BME280;12510;56.468;-3.004;2023-03-03T17:24:54;102078.19;;;16.65;43.37
24390;BME280;12510;56.468;-3.004;2023-03-03T17:30:28;102072.69;;;17.06;43.84
24390;BME280;12510;56.468;-3.004;2023-03-03T17:33:20;102067.91;;;17.00;42.93
24390;BME280;12510;56.468;-3.004;2023-03-03T17:41:52;102074.00;;;16.92;43.63
24390;BME280;12510;56.468;-3.004;2023-03-03T17:46:55;102079.72;;;16.58;44.83
24390;BME280;12510;56.468;-3.004;2023-03-03T17:49:35;102086.50;;;16.02;45.27